Sant Julià de Vilatorta





Hora UTC 15:45
Temperatura 24.1 ºC
Humedad 49.0 %
Presión 1017.8 hPa
Pluja 0.0 mm
Velocidad viento 8.9 km/h
Dirección viento NNE
Radiación solar 192.2 W/m²

Datos diarios 2019-09-20



Hora UTC (invierno +1h; verano +2h)
Temperatura (ºC) Humedad (%) Presión (hPa) Velocidad viento (km/h) Precipitación (mm) Radiación solar (W/m²)
Hora UTC Aire Humedad Presión Vel. Dir. Vel. Max Dir. Intent. máx 5 min. Rad. Sol.
00:05 14.7 95.5 1019.8 1.9 NE 1.9 SSW 0.0 0.0
00:10 14.7 95.5 1019.7 2.3 NNE 4.1 E 0.0 0.0
00:15 14.7 95.5 1019.7 2.3 NNE 4.1 E 0.0 0.0
00:20 14.7 95.5 1019.7 1.8 NE 4.6 SSE 0.0 0.0
00:25 14.7 95.5 1019.7 1.8 NE 4.6 SSE 0.0 0.0
00:30 14.8 95.6 1019.7 1.1 ENE 4.0 SE 0.0 0.0
00:35 14.8 95.6 1019.7 1.1 ENE 4.0 SE 0.0 0.0
00:40 14.8 95.4 1019.6 0.8 ENE 2.2 NE 0.0 0.0
00:45 14.8 95.4 1019.6 0.8 ENE 2.2 NE 0.0 0.0
00:50 14.9 95.5 1019.6 1.3 NNE 2.8 SE 0.0 0.0
00:55 14.9 95.5 1019.6 1.3 NNE 2.8 SE 0.0 0.0
01:00 14.9 95.5 1019.6 2.7 NNE 4.1 SE 0.0 0.0
01:05 14.9 95.5 1019.6 2.7 NNE 4.1 SE 0.0 0.0
01:10 14.9 95.5 1019.6 1.1 NNE 2.3 SE 0.0 0.0
01:15 14.9 95.5 1019.6 1.1 NNE 2.3 SE 0.0 0.0
01:20 14.9 95.6 1019.5 1.6 NE 2.7 E 0.0 0.0
01:25 14.9 95.6 1019.5 1.6 NE 2.7 E 0.0 0.0
01:30 14.9 95.6 1019.6 2.1 NNE 3.5 S 0.0 0.0
01:35 14.9 95.6 1019.6 2.1 NNE 3.5 S 0.0 0.0
01:40 15.0 95.6 1019.5 0.9 NNE 1.7 SE 0.0 0.0
01:45 15.0 95.6 1019.5 0.9 NNE 1.7 SE 0.0 0.0
01:50 15.0 95.6 1019.5 0.5 NE 1.4 SSW 0.0 0.0
01:55 15.0 95.6 1019.5 0.5 NE 1.4 SSW 0.0 0.0
02:00 15.1 95.5 1019.5 2.1 NNE 3.2 SSE 0.0 0.0
02:05 15.1 95.5 1019.5 2.1 NNE 3.2 SSE 0.0 0.0
02:10 15.0 95.5 1019.5 1.8 NNE 3.2 SE 0.0 0.0
02:15 15.0 95.5 1019.5 1.8 NNE 3.2 SE 0.0 0.0
02:20 15.1 95.6 1019.4 1.9 NNE 3.2 E 0.0 0.0
02:25 15.1 95.6 1019.4 1.9 NNE 3.2 E 0.0 0.0
02:30 15.2 95.6 1019.4 1.4 NE 3.0 SSW 0.0 0.0
02:35 15.2 95.6 1019.4 1.4 NE 3.0 SSW 0.0 0.0
02:40 15.2 95.7 1019.4 2.2 NNE 3.6 SE 0.0 0.0
02:45 15.2 95.7 1019.4 2.2 NNE 3.6 SE 0.0 0.0
02:50 15.2 95.7 1019.3 1.5 NNE 3.7 SE 0.0 0.0
02:55 15.2 95.7 1019.3 1.5 NNE 3.7 SE 0.0 0.0
03:00 15.2 95.6 1019.2 0.4 E 0.9 ENE 0.0 0.0
03:05 15.2 95.6 1019.2 0.4 E 0.9 ENE 0.0 0.0
03:10 15.1 95.5 1019.2 0.9 NE 2.1 NNW 0.0 0.0
03:15 15.1 95.5 1019.2 0.9 NE 2.1 NNW 0.0 0.0
03:20 15.1 95.4 1019.1 1.5 NNE 3.5 NNE 0.0 0.0
03:25 15.1 95.4 1019.1 1.5 NNE 3.5 NNE 0.0 0.0
03:30 15.1 95.4 1019.1 0.9 E 2.6 NE 0.0 0.0
03:35 15.1 95.4 1019.1 0.9 E 2.6 NE 0.0 0.0
03:40 15.1 95.5 1019.1 1.1 NNE 2.1 W 0.0 0.0
03:45 15.1 95.5 1019.1 1.1 NNE 2.1 W 0.0 0.0
03:50 15.1 95.5 1019.2 0.9 E 1.7 SW 0.0 0.0
03:55 15.1 95.5 1019.2 0.9 E 1.7 SW 0.0 0.0
04:00 15.0 95.5 1019.2 1.3 NE 2.4 S 0.0 0.0
04:05 15.0 95.5 1019.2 1.3 NE 2.4 S 0.0 0.0
04:10 14.9 95.6 1019.2 1.9 NE 3.1 SSE 0.0 0.0
04:15 14.9 95.6 1019.2 1.9 NE 3.1 SSE 0.0 0.0
04:20 14.8 95.7 1019.1 1.0 ENE 2.7 S 0.0 0.0
04:25 14.8 95.7 1019.1 1.0 ENE 2.7 S 0.0 0.0
04:30 14.8 95.9 1019.1 1.5 NNE 2.6 SSW 0.0 0.0
04:35 14.8 95.9 1019.1 1.5 NNE 2.6 SSW 0.0 0.0
04:40 14.8 96.0 1019.2 1.8 NNE 3.4 S 0.0 0.0
04:45 14.8 96.0 1019.2 1.8 NNE 3.4 S 0.0 0.0
04:50 14.8 96.2 1019.3 2.2 NNE 4.5 SE 0.0 0.0
04:55 14.8 96.2 1019.3 2.2 NNE 4.5 SE 0.0 0.0
05:00 14.8 96.3 1019.3 1.7 NE 5.2 SSE 0.0 0.0
05:05 14.8 96.3 1019.3 1.7 NE 5.2 SSE 0.0 0.0
05:10 14.9 96.3 1019.3 1.5 NE 2.8 NNE 0.0 0.0
05:15 14.9 96.3 1019.3 1.5 NE 2.8 NNE 0.0 0.0
05:20 14.9 96.4 1019.3 1.3 NE 3.1 SSE 0.0 0.0
05:25 14.9 96.4 1019.3 1.3 NE 3.1 SSE 0.0 0.0
05:30 14.9 96.4 1019.4 1.0 ENE 2.0 E 0.0 0.4
05:35 14.9 96.4 1019.4 1.0 ENE 2.0 E 0.0 0.4
05:40 15.0 96.3 1019.4 1.3 ENE 3.0 E 0.0 2.3
05:45 15.0 96.3 1019.4 1.3 ENE 3.0 E 0.0 2.3
05:50 15.0 96.2 1019.3 2.4 NNE 5.8 NE 0.0 7.0
05:55 15.0 96.2 1019.3 2.4 NNE 5.8 NE 0.0 7.0
06:00 15.0 96.1 1019.4 1.5 NE 3.3 SW 0.0 10.1
06:05 15.0 96.1 1019.4 1.5 NE 3.3 SW 0.0 10.1
06:10 15.0 96.2 1019.5 2.3 NNE 4.6 ENE 0.0 14.3
06:15 15.0 96.2 1019.5 2.3 NNE 4.6 ENE 0.0 14.3
06:20 15.1 96.2 1019.5 1.9 ENE 4.4 NNE 0.0 25.7
06:25 15.1 96.2 1019.5 1.9 ENE 4.4 NNE 0.0 25.7
06:30 15.0 96.1 1019.7 2.0 NNE 4.7 NNE 0.0 44.8
06:35 15.0 96.1 1019.7 2.0 NNE 4.7 NNE 0.0 44.8
06:40 15.0 96.3 1019.7 1.2 E 2.7 E 0.0 58.4
06:45 15.0 96.3 1019.7 1.2 E 2.7 E 0.0 58.4
06:50 15.0 96.3 1019.8 1.1 ENE 3.3 NE 0.0 66.4
06:55 15.0 96.3 1019.8 1.1 ENE 3.3 NE 0.0 66.4
07:00 15.1 96.3 1019.8 1.3 NE 3.0 NNE 0.0 76.4
07:05 15.1 96.3 1019.8 1.3 NE 3.0 NNE 0.0 76.4
07:10 15.2 96.3 1020.0 2.4 NNE 4.9 NNW 0.0 74.5
07:15 15.2 96.3 1020.0 2.4 NNE 4.9 NNW 0.0 74.5
07:20 15.3 96.2 1020.1 2.2 NNE 4.2 WNW 0.0 79.0
07:25 15.3 96.2 1020.1 2.2 NNE 4.2 WNW 0.0 79.0
07:30 15.3 96.0 1020.2 3.4 NE 6.3 SSW 0.0 90.1
07:35 15.3 96.0 1020.2 3.4 NE 6.3 SSW 0.0 90.1
07:40 15.3 95.8 1020.3 2.0 NE 4.2 WNW 0.0 125.3
07:45 15.3 95.8 1020.3 2.0 NE 4.2 WNW 0.0 125.3
07:50 15.5 95.7 1020.3 1.9 E 4.4 N 0.0 178.9
07:55 15.5 95.7 1020.3 1.9 E 4.4 N 0.0 178.9
08:00 15.7 95.4 1020.4 2.0 ENE 4.5 NNW 0.0 199.3
08:05 15.7 95.4 1020.4 2.0 ENE 4.5 NNW 0.0 199.3
08:10 15.9 94.7 1020.5 2.5 NE 6.3 N 0.0 191.6
08:15 15.9 94.7 1020.5 2.5 NE 6.3 N 0.0 191.6
08:20 16.1 94.3 1020.6 3.2 NNE 5.8 NNE 0.0 261.5
08:25 16.1 94.3 1020.6 3.2 NNE 5.8 NNE 0.0 261.5
08:30 16.3 94.0 1020.6 3.3 NNE 6.3 N 0.0 336.2
08:35 16.3 94.0 1020.6 3.3 NNE 6.3 N 0.0 336.2
08:40 16.6 93.1 1020.6 3.7 NE 7.9 NNE 0.0 390.6
08:45 16.6 93.1 1020.6 3.7 NE 7.9 NNE 0.0 390.6
08:50 16.9 92.4 1020.7 2.4 NE 4.8 NW 0.0 393.9
08:55 16.9 92.4 1020.7 2.4 NE 4.8 NW 0.0 393.9
09:00 17.5 90.3 1020.6 2.8 NE 6.6 N 0.0 434.4
09:05 17.5 90.3 1020.6 2.8 NE 6.6 N 0.0 434.4
09:10 17.9 86.9 1020.6 2.0 NE 4.8 NW 0.0 548.1
09:15 17.9 86.9 1020.6 2.0 NE 4.8 NW 0.0 548.1
09:20 18.7 85.0 1020.6 1.9 ENE 4.9 NW 0.0 575.3
09:25 18.7 85.0 1020.6 1.9 ENE 4.9 NW 0.0 575.3
09:30 19.4 83.0 1020.5 2.2 ENE 5.3 W 0.0 540.5
09:35 19.4 83.0 1020.5 2.2 ENE 5.3 W 0.0 540.5
09:40 19.7 79.2 1020.5 3.6 NNE 6.8 NW 0.0 599.0
09:45 19.7 79.2 1020.5 3.6 NNE 6.8 NW 0.0 599.0
09:50 20.0 78.1 1020.5 2.8 NE 7.1 NNW 0.0 618.6
09:55 20.0 78.1 1020.5 2.8 NE 7.1 NNW 0.0 618.6
10:00 20.3 76.8 1020.5 3.9 NNE 7.4 NW 0.0 617.6
10:05 20.3 76.8 1020.5 3.9 NNE 7.4 NW 0.0 617.6
10:10 20.6 75.9 1020.4 3.8 NNE 7.6 NNE 0.0 554.7
10:15 20.6 75.9 1020.4 3.8 NNE 7.6 NNE 0.0 554.7
10:20 20.8 75.2 1020.3 4.0 NNE 7.6 NNW 0.0 549.5
10:25 20.8 75.2 1020.3 4.0 NNE 7.6 NNW 0.0 549.5
10:30 21.4 73.4 1020.3 4.8 NNE 10.0 NW 0.0 722.6
10:35 21.4 73.4 1020.3 4.8 NNE 10.0 NW 0.0 722.6
10:40 21.7 70.3 1020.2 5.7 NNE 10.4 NW 0.0 697.9
10:45 21.7 70.3 1020.2 5.7 NNE 10.4 NW 0.0 697.9
10:50 22.1 67.8 1020.2 4.8 NNE 9.1 N 0.0 700.3
10:55 22.1 67.8 1020.2 4.8 NNE 9.1 N 0.0 700.3
11:00 22.5 64.0 1020.1 4.7 NE 11.3 NNW 0.0 725.4
11:05 22.5 64.0 1020.1 4.7 NE 11.3 NNW 0.0 725.4
11:10 22.8 63.5 1019.9 5.5 NNE 13.0 N 0.0 733.9
11:15 22.8 63.5 1019.9 5.5 NNE 13.0 N 0.0 733.9
11:20 23.1 61.9 1019.9 5.8 NNE 11.3 NW 0.0 735.9
11:25 23.1 61.9 1019.9 5.8 NNE 11.3 NW 0.0 735.9
11:30 23.0 60.3 1019.9 5.9 NNE 13.2 NNW 0.0 612.7
11:35 23.0 60.3 1019.9 5.9 NNE 13.2 NNW 0.0 612.7
11:40 23.2 58.4 1019.7 6.7 NNE 13.8 NNW 0.0 701.7
11:45 23.2 58.4 1019.7 6.7 NNE 13.8 NNW 0.0 701.7
11:50 23.4 56.8 1019.6 2.7 ENE 7.5 SSE 0.0 185.0
11:55 23.4 56.8 1019.6 2.7 ENE 7.5 SSE 0.0 185.0
12:00 23.1 56.1 1019.6 4.4 ENE 10.9 NE 0.0 337.3
12:05 23.1 56.1 1019.6 4.4 ENE 10.9 NE 0.0 337.3
12:10 22.7 58.2 1019.5 3.5 ENE 8.2 ENE 0.0 249.0
12:15 22.7 58.2 1019.5 3.5 ENE 8.2 ENE 0.0 249.0
12:20 23.3 56.1 1019.3 2.1 ENE 6.5 ESE 0.0 593.2
12:25 23.3 56.1 1019.3 2.1 ENE 6.5 ESE 0.0 593.2
12:30 23.8 54.6 1019.2 4.4 E 12.0 N 0.0 670.1
12:35 23.8 54.6 1019.2 4.4 E 12.0 N 0.0 670.1
12:40 24.6 49.9 1019.2 4.1 NE 10.4 SSE 0.0 404.7
12:45 24.6 49.9 1019.2 4.1 NE 10.4 SSE 0.0 404.7
12:50 24.0 51.6 1019.1 2.3 NE 5.6 NNE 0.0 264.5
12:55 24.0 51.6 1019.1 2.3 NE 5.6 NNE 0.0 264.5
13:00 23.8 53.0 1019.0 1.9 ENE 4.7 S 0.0 199.5
13:05 23.8 53.0 1019.0 1.9 ENE 4.7 S 0.0 199.5
13:10 23.7 53.4 1019.0 2.6 NE 8.0 SE 0.0 203.0
13:15 23.7 53.4 1019.0 2.6 NE 8.0 SE 0.0 203.0
13:20 23.6 54.0 1018.9 4.1 NE 13.4 E 0.0 247.7
13:25 23.6 54.0 1018.9 4.1 NE 13.4 E 0.0 247.7
13:30 23.4 54.0 1018.8 4.2 NE 9.1 N 0.0 195.8
13:35 23.4 54.0 1018.8 4.2 NE 9.1 N 0.0 195.8
13:40 23.0 54.7 1018.7 5.2 NE 12.7 NNE 0.0 276.0
13:45 23.0 54.7 1018.7 5.2 NE 12.7 NNE 0.0 276.0
13:50 23.2 55.0 1018.5 5.0 NE 10.8 ENE 0.0 348.2
13:55 23.2 55.0 1018.5 5.0 NE 10.8 ENE 0.0 348.2
14:00 23.5 53.6 1018.5 5.2 NE 19.0 NNE 0.0 458.8
14:05 23.5 53.6 1018.5 5.2 NE 19.0 NNE 0.0 458.8
14:10 23.8 51.8 1018.5 4.8 NE 11.5 E 0.0 559.1
14:15 23.8 51.8 1018.5 4.8 NE 11.5 E 0.0 559.1
14:20 24.2 50.5 1018.5 5.5 NE 15.8 ENE 0.0 437.2
14:25 24.2 50.5 1018.5 5.5 NE 15.8 ENE 0.0 437.2
14:30 24.6 49.6 1018.4 5.7 NE 14.3 SSE 0.0 562.2
14:35 24.6 49.6 1018.4 5.7 NE 14.3 SSE 0.0 562.2
14:40 24.9 48.1 1018.1 5.4 ENE 16.5 ESE 0.0 520.7
14:45 24.9 48.1 1018.1 5.4 ENE 16.5 ESE 0.0 520.7
14:50 24.4 49.6 1018.0 4.9 ENE 13.5 ENE 0.0 489.3
14:55 24.4 49.6 1018.0 4.9 ENE 13.5 ENE 0.0 489.3
15:00 24.1 50.0 1017.8 6.0 NE 14.6 ENE 0.0 464.0
15:05 24.1 50.0 1017.8 6.0 NE 14.6 ENE 0.0 464.0
15:10 24.1 51.1 1017.8 4.4 ENE 13.3 NE 0.0 427.1
15:15 24.1 51.1 1017.8 4.4 ENE 13.3 NE 0.0 427.1
15:20 24.1 49.3 1017.8 6.6 NNE 15.8 S 0.0 408.5
15:25 24.1 49.3 1017.8 6.6 NNE 15.8 S 0.0 408.5
15:30 24.1 48.1 1017.8 7.2 NNE 16.5 SSE 0.0 155.6
15:35 24.1 48.1 1017.8 7.2 NNE 16.5 SSE 0.0 155.6
15:40 24.1 49.0 1017.8 8.9 NNE 19.0 SE 0.0 192.2
15:45 24.1 49.0 1017.8 8.9 NNE 19.0 SE 0.0 192.2
Máxima 25.1 96.4 1020.7 8.9 NNE 19.0 SE 0.0 735.9
Mínima 14.6 48.1 1017.8
Total 0.0